Time;durP1;ratioP1;P1;durP2;ratioP2;P2;SDS_P1;SDS_P2;PMS_P1;PMS_P2;Temp;Humidity;BMP_temperature;BMP_pressure;BME280_temperature;BME280_humidity;BME280_pressure;Samples;Min_cycle;Max_cycle;Signal;HPM_P1;HPM_P2
2021/06/29 00:01:28;;;;;;;30.03;28.23;;;;;;;;;;4995604;28;20914;-86
2021/06/29 00:03:55;;;;;;;30.87;28.97;;;;;;;;;;4995059;28;20491;-86
2021/06/29 00:06:22;;;;;;;31.67;29.83;;;;;;;;;;4995805;28;20438;-86
2021/06/29 00:08:50;;;;;;;31.27;29.43;;;;;;;;;;4995568;28;20540;-85
2021/06/29 00:11:17;;;;;;;31.00;29.20;;;;;;;;;;4995488;28;20448;-86
2021/06/29 00:13:46;;;;;;;30.80;29.00;;;;;;;;;;4978334;28;20434;-86
2021/06/29 00:16:14;;;;;;;30.23;28.50;;;;;;;;;;4995540;28;20439;-86
2021/06/29 00:18:41;;;;;;;28.50;26.97;;;;;;;;;;4995192;28;20450;-86
2021/06/29 00:21:10;;;;;;;29.97;27.97;;;;;;;;;;4995680;28;20415;-86
2021/06/29 00:23:41;;;;;;;30.53;28.73;;;;;;;;;;4995918;28;20418;-86
2021/06/29 00:26:09;;;;;;;29.03;27.27;;;;;;;;;;4977865;28;20448;-87
2021/06/29 00:28:37;;;;;;;28.50;27.00;;;;;;;;;;4995072;28;20454;-86
2021/06/29 00:31:06;;;;;;;30.20;28.27;;;;;;;;;;4995384;28;20419;-87
2021/06/29 00:33:34;;;;;;;29.60;27.80;;;;;;;;;;4978313;28;20413;-86
2021/06/29 00:36:01;;;;;;;28.93;27.27;;;;;;;;;;4995227;28;20423;-86
2021/06/29 00:38:29;;;;;;;28.83;27.23;;;;;;;;;;4978371;28;20434;-86
2021/06/29 00:40:56;;;;;;;29.60;28.10;;;;;;;;;;4995836;28;20452;-86
2021/06/29 00:43:24;;;;;;;29.80;27.93;;;;;;;;;;4995320;28;20418;-86
2021/06/29 00:45:51;;;;;;;31.03;29.23;;;;;;;;;;4995180;28;20817;-86
2021/06/29 00:48:20;;;;;;;30.33;28.43;;;;;;;;;;4994895;28;20483;-86
2021/06/29 00:50:47;;;;;;;29.87;28.17;;;;;;;;;;4995228;28;20446;-86
2021/06/29 00:53:15;;;;;;;30.30;28.40;;;;;;;;;;4994881;28;20429;-85
2021/06/29 00:55:43;;;;;;;29.17;27.50;;;;;;;;;;4994970;28;20444;-86
2021/06/29 00:58:11;;;;;;;29.10;27.33;;;;;;;;;;4995064;28;20425;-87
2021/06/29 01:00:39;;;;;;;29.70;28.10;;;;;;;;;;4978008;28;20939;-87
2021/06/29 01:03:07;;;;;;;29.07;27.27;;;;;;;;;;4995074;28;20461;-86
2021/06/29 01:05:36;;;;;;;30.30;28.53;;;;;;;;;;4994636;28;20406;-86
2021/06/29 01:08:03;;;;;;;29.53;27.93;;;;;;;;;;4994524;28;20483;-86
2021/06/29 01:10:31;;;;;;;30.00;28.07;;;;;;;;;;4995264;28;20414;-86
2021/06/29 01:12:59;;;;;;;28.30;26.60;;;;;;;;;;4978014;28;20436;-86
2021/06/29 01:15:27;;;;;;;30.07;28.47;;;;;;;;;;4995028;28;20448;-86
2021/06/29 01:17:54;;;;;;;29.87;28.17;;;;;;;;;;4998818;28;20892;-86
2021/06/29 01:20:26;;;;;;;29.40;27.67;;;;;;;;;;4999121;28;20819;-86
2021/06/29 01:22:56;;;;;;;29.50;27.63;;;;;;;;;;4999502;28;20422;-86
2021/06/29 01:25:27;;;;;;;28.63;27.03;;;;;;;;;;4998245;28;20933;-86
2021/06/29 01:28:02;;;;;;;29.23;27.30;;;;;;;;;;4998382;28;20479;-86
2021/06/29 01:33:14;;;;;;;28.93;27.43;;;;;;;;;;4998627;28;20567;-85
2021/06/29 01:35:43;;;;;;;26.20;24.70;;;;;;;;;;4998199;28;20437;-86
2021/06/29 01:38:16;;;;;;;27.57;25.80;;;;;;;;;;4998142;28;20502;-86
2021/06/29 01:40:43;;;;;;;27.37;25.97;;;;;;;;;;4998037;28;20424;-86
2021/06/29 01:43:11;;;;;;;28.47;26.70;;;;;;;;;;4998444;28;20443;-86
2021/06/29 01:45:40;;;;;;;26.97;25.40;;;;;;;;;;4998054;28;20460;-86
2021/06/29 01:48:17;;;;;;;29.33;26.70;;;;;;;;;;4980602;28;21009;-86
2021/06/29 01:50:46;;;;;;;27.30;25.90;;;;;;;;;;4998174;28;20474;-86
2021/06/29 01:53:14;;;;;;;25.93;24.50;;;;;;;;;;4998692;28;20405;-86
2021/06/29 01:55:41;;;;;;;27.97;26.07;;;;;;;;;;4997767;28;20448;-86
2021/06/29 01:58:09;;;;;;;26.30;24.80;;;;;;;;;;4998294;28;20411;-86
2021/06/29 02:00:36;;;;;;;27.17;25.77;;;;;;;;;;4998252;28;20441;-86
2021/06/29 02:03:04;;;;;;;26.70;25.10;;;;;;;;;;4997929;28;20414;-86
2021/06/29 02:05:31;;;;;;;27.07;25.60;;;;;;;;;;4998034;28;20435;-86
2021/06/29 02:08:00;;;;;;;27.70;26.20;;;;;;;;;;4980659;28;20458;-86
2021/06/29 02:10:28;;;;;;;27.80;25.80;;;;;;;;;;4998046;28;20434;-86
2021/06/29 02:12:57;;;;;;;26.83;25.33;;;;;;;;;;4997620;28;20408;-86
2021/06/29 02:15:25;;;;;;;26.57;25.00;;;;;;;;;;4998350;28;20746;-86
2021/06/29 02:17:52;;;;;;;28.13;26.53;;;;;;;;;;4998039;28;20407;-87
2021/06/29 02:20:19;;;;;;;28.30;26.60;;;;;;;;;;4997565;28;20425;-86
2021/06/29 02:22:48;;;;;;;25.43;23.93;;;;;;;;;;4997601;28;20433;-86
2021/06/29 02:25:18;;;;;;;26.37;24.80;;;;;;;;;;4997790;28;20438;-86
2021/06/29 02:27:45;;;;;;;26.03;24.57;;;;;;;;;;4997000;28;20463;-86
2021/06/29 02:30:13;;;;;;;27.87;26.30;;;;;;;;;;4997891;28;20436;-86
2021/06/29 02:32:40;;;;;;;24.50;23.10;;;;;;;;;;4997224;28;20918;-86
2021/06/29 02:35:08;;;;;;;28.47;26.57;;;;;;;;;;4997480;28;20455;-86
2021/06/29 02:37:35;;;;;;;26.90;25.50;;;;;;;;;;4997558;28;20904;-87
2021/06/29 02:40:03;;;;;;;27.67;25.87;;;;;;;;;;4979951;28;20463;-86
2021/06/29 02:42:32;;;;;;;26.03;24.63;;;;;;;;;;4996975;28;20456;-86
2021/06/29 02:45:04;;;;;;;26.97;25.37;;;;;;;;;;4996887;28;20463;-86
2021/06/29 02:47:32;;;;;;;27.93;26.20;;;;;;;;;;4979917;28;20869;-86
2021/06/29 02:49:59;;;;;;;26.73;25.00;;;;;;;;;;4997007;28;20510;-86
2021/06/29 02:52:27;;;;;;;26.53;25.00;;;;;;;;;;4997193;28;20444;-86
2021/06/29 02:54:54;;;;;;;25.90;24.50;;;;;;;;;;4996687;28;20433;-87
2021/06/29 02:57:22;;;;;;;27.40;25.80;;;;;;;;;;4996851;28;20458;-86
2021/06/29 02:59:50;;;;;;;27.20;25.53;;;;;;;;;;4996948;28;20962;-86
2021/06/29 03:02:18;;;;;;;26.13;24.60;;;;;;;;;;4996922;28;20451;-86
2021/06/29 03:04:45;;;;;;;27.60;25.90;;;;;;;;;;4996529;28;20491;-86
2021/06/29 03:07:12;;;;;;;26.67;25.03;;;;;;;;;;4996775;28;20455;-86
2021/06/29 03:09:40;;;;;;;26.43;24.83;;;;;;;;;;4979556;28;20483;-86
2021/06/29 03:12:08;;;;;;;26.57;25.07;;;;;;;;;;4996532;28;20468;-86
2021/06/29 03:14:36;;;;;;;28.60;26.80;;;;;;;;;;4996536;28;20907;-85
2021/06/29 03:17:05;;;;;;;27.53;25.93;;;;;;;;;;4996481;28;20473;-86
2021/06/29 03:19:33;;;;;;;28.47;26.77;;;;;;;;;;4996561;28;20410;-86
2021/06/29 03:22:01;;;;;;;28.03;26.43;;;;;;;;;;4979514;28;20423;-86
2021/06/29 03:24:28;;;;;;;28.80;27.00;;;;;;;;;;4996348;28;20887;-86
2021/06/29 03:26:56;;;;;;;28.20;26.10;;;;;;;;;;4996366;28;20439;-86
2021/06/29 03:29:23;;;;;;;29.00;27.10;;;;;;;;;;4996305;28;20503;-86
2021/06/29 03:31:51;;;;;;;29.57;27.57;;;;;;;;;;4996480;28;20446;-86
2021/06/29 03:34:20;;;;;;;28.43;26.83;;;;;;;;;;4978940;28;20521;-86
2021/06/29 03:36:47;;;;;;;29.30;27.50;;;;;;;;;;4996443;28;20433;-86
2021/06/29 03:39:14;;;;;;;28.87;27.00;;;;;;;;;;4995242;28;20442;-86
2021/06/29 03:41:42;;;;;;;28.70;27.10;;;;;;;;;;4979002;28;20432;-86
2021/06/29 03:44:09;;;;;;;27.33;25.37;;;;;;;;;;4996173;28;20534;-86
2021/06/29 03:46:37;;;;;;;29.93;27.97;;;;;;;;;;4995819;28;20449;-86
2021/06/29 03:49:04;;;;;;;28.20;26.53;;;;;;;;;;4995566;28;20465;-86
2021/06/29 03:51:33;;;;;;;29.10;27.20;;;;;;;;;;4995975;28;20418;-86
2021/06/29 03:54:00;;;;;;;29.73;27.90;;;;;;;;;;4979076;28;20458;-86
2021/06/29 03:56:31;;;;;;;28.30;26.70;;;;;;;;;;4996116;28;20441;-86
2021/06/29 03:59:00;;;;;;;30.10;28.20;;;;;;;;;;4996512;28;20458;-86
2021/06/29 04:01:27;;;;;;;31.07;29.00;;;;;;;;;;4995819;28;20426;-86
2021/06/29 04:03:55;;;;;;;31.60;29.40;;;;;;;;;;4995334;28;20999;-86
2021/06/29 04:06:23;;;;;;;32.20;30.20;;;;;;;;;;4995433;28;20940;-85
2021/06/29 04:08:53;;;;;;;34.10;32.00;;;;;;;;;;4995588;28;20486;-86
2021/06/29 04:11:20;;;;;;;32.43;30.23;;;;;;;;;;4995440;28;20906;-85
2021/06/29 04:13:47;;;;;;;31.87;29.97;;;;;;;;;;4995608;28;20439;-86
2021/06/29 04:16:15;;;;;;;33.70;31.60;;;;;;;;;;4995554;28;20921;-86
2021/06/29 04:18:42;;;;;;;31.20;29.00;;;;;;;;;;4995402;28;20438;-89
2021/06/29 04:21:10;;;;;;;34.53;32.33;;;;;;;;;;4995222;28;20451;-88
2021/06/29 04:23:38;;;;;;;31.83;29.73;;;;;;;;;;4995299;28;20517;-87
2021/06/29 04:26:07;;;;;;;31.10;29.20;;;;;;;;;;4995041;28;20423;-86
2021/06/29 04:28:34;;;;;;;30.17;28.23;;;;;;;;;;4995309;28;20421;-86
2021/06/29 04:31:02;;;;;;;33.40;31.40;;;;;;;;;;4995081;28;20466;-86
2021/06/29 04:33:29;;;;;;;32.27;30.23;;;;;;;;;;4995541;28;20435;-86
2021/06/29 04:35:57;;;;;;;33.17;30.77;;;;;;;;;;4995361;28;20431;-86
2021/06/29 04:38:24;;;;;;;31.57;29.77;;;;;;;;;;4995302;28;20424;-87
2021/06/29 04:40:52;;;;;;;31.70;29.70;;;;;;;;;;4995215;28;20421;-87
2021/06/29 04:43:20;;;;;;;31.03;29.10;;;;;;;;;;4995069;28;20418;-87
2021/06/29 04:45:48;;;;;;;31.50;29.53;;;;;;;;;;4995036;28;20450;-86
2021/06/29 04:48:16;;;;;;;30.80;29.00;;;;;;;;;;4994942;28;20450;-86
2021/06/29 04:50:45;;;;;;;31.33;29.53;;;;;;;;;;4977642;28;20524;-86
2021/06/29 04:53:12;;;;;;;31.40;29.40;;;;;;;;;;4995230;28;20440;-87
2021/06/29 04:55:39;;;;;;;30.60;28.90;;;;;;;;;;4994692;28;20904;-87
2021/06/29 04:58:07;;;;;;;32.83;30.90;;;;;;;;;;4995158;28;20925;-87
2021/06/29 05:00:38;;;;;;;31.50;29.63;;;;;;;;;;4994817;28;20925;-87
2021/06/29 05:03:05;;;;;;;31.20;29.23;;;;;;;;;;4995256;28;20491;-87
2021/06/29 05:05:32;;;;;;;32.27;30.27;;;;;;;;;;4995087;28;20445;-87
2021/06/29 05:08:00;;;;;;;30.83;28.93;;;;;;;;;;4994721;28;20407;-87
2021/06/29 05:10:27;;;;;;;30.87;28.97;;;;;;;;;;4995116;28;20490;-87
2021/06/29 05:12:55;;;;;;;30.80;28.90;;;;;;;;;;4977365;28;20451;-86
2021/06/29 05:15:22;;;;;;;31.27;29.37;;;;;;;;;;4994747;28;20414;-85
2021/06/29 05:17:51;;;;;;;30.20;28.20;;;;;;;;;;4994745;28;20429;-87
2021/06/29 05:20:19;;;;;;;31.17;29.37;;;;;;;;;;4994918;28;20425;-86
2021/06/29 05:22:46;;;;;;;31.13;29.33;;;;;;;;;;4994924;28;20423;-88
2021/06/29 05:25:14;;;;;;;33.10;30.90;;;;;;;;;;4977444;28;20422;-89
2021/06/29 05:27:42;;;;;;;30.47;28.77;;;;;;;;;;4994680;28;20913;-89
2021/06/29 05:30:10;;;;;;;32.40;30.40;;;;;;;;;;4994451;28;20881;-89
2021/06/29 05:32:38;;;;;;;32.67;30.47;;;;;;;;;;4994474;28;20444;-89
2021/06/29 05:35:08;;;;;;;29.93;28.17;;;;;;;;;;4994814;28;20419;-89
2021/06/29 05:37:35;;;;;;;33.50;31.47;;;;;;;;;;4994709;28;20425;-89
2021/06/29 05:40:03;;;;;;;30.50;28.53;;;;;;;;;;4977780;28;20441;-89
2021/06/29 05:42:30;;;;;;;29.23;27.43;;;;;;;;;;4994430;28;20418;-89
2021/06/29 05:44:57;;;;;;;30.80;29.00;;;;;;;;;;4994319;28;20420;-89
2021/06/29 05:47:25;;;;;;;30.17;28.37;;;;;;;;;;4994837;28;20452;-90
2021/06/29 05:49:52;;;;;;;28.67;26.83;;;;;;;;;;4994366;28;20510;-90
2021/06/29 05:52:21;;;;;;;30.20;28.30;;;;;;;;;;4977851;28;20451;-91
2021/06/29 05:54:49;;;;;;;29.37;27.60;;;;;;;;;;4977408;28;20441;-91
2021/06/29 05:57:17;;;;;;;29.50;27.90;;;;;;;;;;4994634;28;20446;-89
2021/06/29 05:59:44;;;;;;;29.40;27.50;;;;;;;;;;4994341;28;20434;-91
2021/06/29 06:02:12;;;;;;;29.90;28.10;;;;;;;;;;4995696;28;20467;-91
2021/06/29 06:04:40;;;;;;;28.40;26.90;;;;;;;;;;4998318;28;20493;-91
2021/06/29 06:07:07;;;;;;;29.00;27.40;;;;;;;;;;4998302;28;20414;-91
2021/06/29 06:09:36;;;;;;;27.60;25.70;;;;;;;;;;4997856;28;20473;-91
2021/06/29 06:12:05;;;;;;;29.00;27.37;;;;;;;;;;4998042;28;20422;-91
2021/06/29 06:14:32;;;;;;;25.80;24.50;;;;;;;;;;4998104;28;20443;-91
2021/06/29 06:17:00;;;;;;;26.87;25.37;;;;;;;;;;4997898;28;20438;-91
2021/06/29 06:19:27;;;;;;;27.83;26.37;;;;;;;;;;4997613;28;20455;-91
2021/06/29 06:21:54;;;;;;;27.00;25.43;;;;;;;;;;4981011;28;20423;-90
2021/06/29 06:24:22;;;;;;;26.33;24.83;;;;;;;;;;4997487;28;20454;-90
2021/06/29 06:26:51;;;;;;;29.00;27.00;;;;;;;;;;4997429;28;20451;-88
2021/06/29 06:29:18;;;;;;;27.97;26.37;;;;;;;;;;4997355;28;20431;-90
2021/06/29 06:31:46;;;;;;;28.13;26.63;;;;;;;;;;4997493;28;20444;-90
2021/06/29 06:34:13;;;;;;;28.80;27.20;;;;;;;;;;4997594;28;20881;-90
2021/06/29 06:36:41;;;;;;;27.40;25.50;;;;;;;;;;4997555;28;20419;-90
2021/06/29 06:39:08;;;;;;;28.30;26.43;;;;;;;;;;4997505;28;20423;-90
2021/06/29 06:41:36;;;;;;;28.07;26.47;;;;;;;;;;4980659;28;20457;-90
2021/06/29 06:44:05;;;;;;;27.07;25.40;;;;;;;;;;4997534;28;20416;-90
2021/06/29 06:46:33;;;;;;;27.67;26.17;;;;;;;;;;4997262;28;20419;-90
2021/06/29 06:49:00;;;;;;;26.30;24.67;;;;;;;;;;4997396;28;20479;-89
2021/06/29 06:51:28;;;;;;;26.13;24.73;;;;;;;;;;4996979;28;20461;-89
2021/06/29 06:53:55;;;;;;;24.40;23.03;;;;;;;;;;4997338;28;20454;-89
2021/06/29 06:56:23;;;;;;;25.73;24.30;;;;;;;;;;4997073;28;20411;-90
2021/06/29 06:58:50;;;;;;;25.90;24.30;;;;;;;;;;4997115;28;20437;-90
2021/06/29 07:01:19;;;;;;;26.53;24.97;;;;;;;;;;4980048;28;20427;-90
2021/06/29 07:03:46;;;;;;;27.80;26.30;;;;;;;;;;4997146;28;20512;-94
2021/06/29 07:06:14;;;;;;;26.17;24.77;;;;;;;;;;4997031;28;20462;-89
2021/06/29 07:08:42;;;;;;;26.77;24.97;;;;;;;;;;4996928;28;20436;-91
2021/06/29 07:11:09;;;;;;;26.63;25.13;;;;;;;;;;4996448;28;20472;-93
2021/06/29 07:13:36;;;;;;;26.43;25.03;;;;;;;;;;4996255;28;20423;-93
2021/06/29 07:16:04;;;;;;;26.00;24.60;;;;;;;;;;4996943;28;20414;-95
2021/06/29 07:18:33;;;;;;;25.47;24.17;;;;;;;;;;4997052;28;20459;-90
2021/06/29 07:21:01;;;;;;;26.77;25.10;;;;;;;;;;4996892;28;20431;-95
2021/06/29 07:23:28;;;;;;;26.70;25.30;;;;;;;;;;4996891;28;20888;-93
2021/06/29 07:25:56;;;;;;;26.60;25.17;;;;;;;;;;4996706;28;20423;-94
2021/06/29 07:28:23;;;;;;;26.30;24.77;;;;;;;;;;4996769;28;20426;-95
2021/06/29 07:30:51;;;;;;;27.07;25.57;;;;;;;;;;4996418;28;20496;-94
2021/06/29 07:33:18;;;;;;;26.13;24.73;;;;;;;;;;4996353;28;20419;-94
2021/06/29 07:35:47;;;;;;;25.80;24.37;;;;;;;;;;4996525;28;20748;-94
2021/06/29 07:38:14;;;;;;;25.00;23.70;;;;;;;;;;4996253;28;20440;-95
2021/06/29 07:40:42;;;;;;;27.50;25.73;;;;;;;;;;4996504;28;20415;-94
2021/06/29 07:43:09;;;;;;;27.40;25.73;;;;;;;;;;4979834;28;20456;-94
2021/06/29 07:45:37;;;;;;;25.40;23.90;;;;;;;;;;4996548;28;20449;-95
2021/06/29 07:48:05;;;;;;;24.90;23.50;;;;;;;;;;4996678;28;20444;-94
2021/06/29 07:50:33;;;;;;;25.07;23.57;;;;;;;;;;4996372;28;20803;-95
2021/06/29 07:53:03;;;;;;;24.80;23.40;;;;;;;;;;4995430;28;20426;-93
2021/06/29 07:55:30;;;;;;;25.50;23.97;;;;;;;;;;4996386;28;20452;-92
2021/06/29 07:57:58;;;;;;;24.47;22.87;;;;;;;;;;4996085;28;20436;-93
2021/06/29 08:00:26;;;;;;;24.70;23.20;;;;;;;;;;4997484;28;20447;-92
2021/06/29 08:02:55;;;;;;;25.13;23.73;;;;;;;;;;4998927;28;20451;-91
2021/06/29 08:05:22;;;;;;;25.47;23.87;;;;;;;;;;4997016;28;20441;-92
2021/06/29 08:07:49;;;;;;;26.00;24.50;;;;;;;;;;4996385;28;20439;-92
2021/06/29 08:10:19;;;;;;;25.97;24.57;;;;;;;;;;4995686;28;20488;-92
2021/06/29 08:12:46;;;;;;;26.47;25.07;;;;;;;;;;4996027;28;20419;-92
2021/06/29 08:15:15;;;;;;;26.67;25.23;;;;;;;;;;4995909;28;20526;-91
2021/06/29 08:17:42;;;;;;;25.80;24.40;;;;;;;;;;4996046;28;20424;-91
2021/06/29 08:20:10;;;;;;;25.63;24.23;;;;;;;;;;4995928;28;20442;-90
2021/06/29 08:22:38;;;;;;;27.60;26.00;;;;;;;;;;4978774;28;20511;-85
2021/06/29 08:25:06;;;;;;;27.37;25.67;;;;;;;;;;4994546;28;20442;-84
2021/06/29 08:27:34;;;;;;;27.10;25.60;;;;;;;;;;4994314;28;20407;-83
2021/06/29 08:30:02;;;;;;;29.27;27.03;;;;;;;;;;4976894;28;20447;-84
2021/06/29 08:32:29;;;;;;;28.87;27.23;;;;;;;;;;4994964;28;20433;-82
2021/06/29 08:34:57;;;;;;;28.97;27.03;;;;;;;;;;4994977;28;20882;-89
2021/06/29 08:37:25;;;;;;;29.20;27.37;;;;;;;;;;4995023;28;20440;-90
2021/06/29 08:39:55;;;;;;;29.73;27.13;;;;;;;;;;4995118;28;20437;-89
2021/06/29 08:42:22;;;;;;;28.50;26.90;;;;;;;;;;4995388;28;20447;-89
2021/06/29 08:44:51;;;;;;;29.37;27.20;;;;;;;;;;4995303;28;20442;-89
2021/06/29 08:47:19;;;;;;;26.80;25.23;;;;;;;;;;4995492;28;20440;-90
2021/06/29 08:49:46;;;;;;;27.30;25.70;;;;;;;;;;4994961;28;20781;-89
2021/06/29 08:52:13;;;;;;;26.73;25.23;;;;;;;;;;4995307;28;20438;-89
2021/06/29 08:54:42;;;;;;;27.03;25.13;;;;;;;;;;4977860;28;20818;-90
2021/06/29 08:57:09;;;;;;;26.63;25.13;;;;;;;;;;4961967;28;20795;-90
2021/06/29 08:59:37;;;;;;;26.50;24.87;;;;;;;;;;4978045;28;20431;-90
2021/06/29 09:02:06;;;;;;;25.27;23.90;;;;;;;;;;4995351;28;20401;-90
2021/06/29 09:04:43;;;;;;;26.27;24.87;;;;;;;;;;4994768;28;20497;-90
2021/06/29 09:07:17;;;;;;;26.90;25.40;;;;;;;;;;4995234;28;20782;-90
2021/06/29 09:09:48;;;;;;;25.47;24.10;;;;;;;;;;4995217;28;20538;-90
2021/06/29 09:12:15;;;;;;;26.50;24.70;;;;;;;;;;4994574;28;20488;-90
2021/06/29 09:14:42;;;;;;;27.30;25.80;;;;;;;;;;4995604;28;20785;-88
2021/06/29 09:17:22;;;;;;;26.90;25.40;;;;;;;;;;4978822;28;20431;-91
2021/06/29 09:19:50;;;;;;;26.37;24.90;;;;;;;;;;4994802;28;20424;-90
2021/06/29 09:22:27;;;;;;;26.10;24.50;;;;;;;;;;4995181;28;20424;-91
2021/06/29 09:24:55;;;;;;;26.00;24.30;;;;;;;;;;4994690;28;20922;-91
2021/06/29 09:27:41;;;;;;;25.97;23.93;;;;;;;;;;4977671;28;20424;-91
2021/06/29 09:30:28;;;;;;;25.13;23.73;;;;;;;;;;4994709;28;20467;-91
2021/06/29 09:32:58;;;;;;;25.33;23.93;;;;;;;;;;4994933;28;20453;-92
2021/06/29 09:35:28;;;;;;;26.23;24.83;;;;;;;;;;4977557;28;20939;-92
2021/06/29 09:37:55;;;;;;;25.10;23.70;;;;;;;;;;4996800;28;20441;-91
2021/06/29 09:40:24;;;;;;;27.93;26.33;;;;;;;;;;4998363;28;20415;-90
2021/06/29 09:42:52;;;;;;;27.00;25.50;;;;;;;;;;4981830;28;20456;-91
2021/06/29 09:45:32;;;;;;;27.60;26.00;;;;;;;;;;4998746;28;20437;-90
2021/06/29 09:48:02;;;;;;;28.00;26.30;;;;;;;;;;4998411;28;20998;-91
2021/06/29 09:50:36;;;;;;;28.43;26.80;;;;;;;;;;4998416;28;20455;-92
2021/06/29 09:53:12;;;;;;;26.70;25.10;;;;;;;;;;4998658;28;20431;-92
2021/06/29 09:55:40;;;;;;;26.07;24.40;;;;;;;;;;4981048;28;20859;-91
2021/06/29 09:58:11;;;;;;;26.17;24.77;;;;;;;;;;4981084;28;20483;-92
2021/06/29 10:00:42;;;;;;;25.13;23.57;;;;;;;;;;4998399;28;20889;-92
2021/06/29 10:03:19;;;;;;;25.70;24.30;;;;;;;;;;4998280;28;20453;-90
2021/06/29 10:05:47;;;;;;;24.77;23.37;;;;;;;;;;4997989;28;20988;-91
2021/06/29 10:08:22;;;;;;;25.10;23.60;;;;;;;;;;4998113;28;20452;-90
2021/06/29 10:10:49;;;;;;;25.43;24.03;;;;;;;;;;4998365;28;20472;-90
2021/06/29 10:13:18;;;;;;;25.60;24.10;;;;;;;;;;4997857;28;20448;-90
2021/06/29 10:15:45;;;;;;;26.27;24.77;;;;;;;;;;4980706;28;20424;-90
2021/06/29 10:18:13;;;;;;;25.50;24.10;;;;;;;;;;4998087;28;20433;-90
2021/06/29 10:20:52;;;;;;;25.27;23.90;;;;;;;;;;4998073;28;20442;-90
2021/06/29 10:23:20;;;;;;;26.73;25.10;;;;;;;;;;4998157;28;20416;-90
2021/06/29 10:25:48;;;;;;;24.90;23.40;;;;;;;;;;4997809;28;20412;-90
2021/06/29 10:28:17;;;;;;;25.40;24.07;;;;;;;;;;4997623;28;20448;-89
2021/06/29 10:30:46;;;;;;;25.83;24.33;;;;;;;;;;4997756;28;20531;-89
2021/06/29 10:33:14;;;;;;;25.37;23.87;;;;;;;;;;4997349;28;20445;-90
2021/06/29 10:35:44;;;;;;;25.90;24.30;;;;;;;;;;4997672;28;20453;-89
2021/06/29 10:38:11;;;;;;;25.77;23.97;;;;;;;;;;4997674;28;20765;-90
2021/06/29 10:40:39;;;;;;;25.43;23.73;;;;;;;;;;4997613;28;20798;-90
2021/06/29 10:43:06;;;;;;;26.77;25.10;;;;;;;;;;4997617;28;20441;-90
2021/06/29 10:45:35;;;;;;;24.97;23.67;;;;;;;;;;4997377;28;20528;-90
2021/06/29 10:48:18;;;;;;;27.47;25.80;;;;;;;;;;4997254;28;20440;-90
2021/06/29 10:50:47;;;;;;;25.97;24.57;;;;;;;;;;4997457;28;20474;-88
2021/06/29 10:53:45;;;;;;;24.87;23.47;;;;;;;;;;4980451;28;20427;-90
2021/06/29 10:56:17;;;;;;;25.10;23.70;;;;;;;;;;4918371;29;20540;-88
2021/06/29 10:58:45;;;;;;;24.97;23.47;;;;;;;;;;4919128;29;20512;-88
2021/06/29 11:01:34;;;;;;;26.30;24.90;;;;;;;;;;4918160;29;20440;-87
2021/06/29 11:04:02;;;;;;;26.63;24.87;;;;;;;;;;4915859;29;20487;-87
2021/06/29 11:06:46;;;;;;;24.63;23.17;;;;;;;;;;4918180;29;20446;-86
2021/06/29 11:09:20;;;;;;;25.00;23.50;;;;;;;;;;4918005;29;20891;-87
2021/06/29 11:12:02;;;;;;;25.03;23.63;;;;;;;;;;4918145;29;21001;-86
2021/06/29 11:14:31;;;;;;;25.10;23.60;;;;;;;;;;4910400;29;20428;-87
2021/06/29 11:16:59;;;;;;;24.43;23.00;;;;;;;;;;4918021;29;20435;-86
2021/06/29 11:19:45;;;;;;;25.77;24.07;;;;;;;;;;4917807;29;20441;-86
2021/06/29 11:22:27;;;;;;;26.53;24.93;;;;;;;;;;4917971;29;20541;-88
2021/06/29 11:25:04;;;;;;;24.83;23.40;;;;;;;;;;4917057;29;20441;-88
2021/06/29 11:27:46;;;;;;;25.63;24.13;;;;;;;;;;4918072;29;20513;-87
2021/06/29 11:30:14;;;;;;;25.47;24.00;;;;;;;;;;4952678;28;20453;-87
2021/06/29 11:32:41;;;;;;;25.63;24.03;;;;;;;;;;4996425;28;20817;-87
2021/06/29 11:35:27;;;;;;;24.80;23.40;;;;;;;;;;4996260;28;20891;-87
2021/06/29 11:38:05;;;;;;;25.90;24.50;;;;;;;;;;4996497;28;20408;-87
2021/06/29 11:40:34;;;;;;;25.87;24.07;;;;;;;;;;4996160;28;20428;-87
2021/06/29 11:43:08;;;;;;;26.43;24.73;;;;;;;;;;4996349;28;20451;-87
2021/06/29 11:45:35;;;;;;;26.37;24.67;;;;;;;;;;4996180;28;20414;-87
2021/06/29 11:48:03;;;;;;;26.80;25.30;;;;;;;;;;4996085;28;20405;-87
2021/06/29 11:50:30;;;;;;;26.13;24.63;;;;;;;;;;4996045;28;20450;-87
2021/06/29 11:53:00;;;;;;;26.33;24.93;;;;;;;;;;4996004;28;20481;-87
2021/06/29 11:55:29;;;;;;;25.70;24.00;;;;;;;;;;4995783;28;20480;-87
2021/06/29 11:57:58;;;;;;;27.03;25.43;;;;;;;;;;4978902;28;20475;-87
2021/06/29 12:00:30;;;;;;;25.80;24.30;;;;;;;;;;4994852;28;21005;-86
2021/06/29 12:02:58;;;;;;;28.33;26.33;;;;;;;;;;4992136;28;20452;-86
2021/06/29 12:05:26;;;;;;;27.00;25.50;;;;;;;;;;4995567;28;20440;-87
2021/06/29 12:07:55;;;;;;;26.50;24.90;;;;;;;;;;4996599;28;20446;-87
2021/06/29 12:10:23;;;;;;;26.37;24.87;;;;;;;;;;4996220;28;20450;-87
2021/06/29 12:12:51;;;;;;;26.00;24.53;;;;;;;;;;4995368;28;20982;-87
2021/06/29 12:15:22;;;;;;;27.97;26.47;;;;;;;;;;4995690;28;20436;-87
2021/06/29 12:17:54;;;;;;;27.13;25.53;;;;;;;;;;4995355;28;20429;-86
2021/06/29 12:20:23;;;;;;;27.43;25.90;;;;;;;;;;4995809;28;20428;-86
2021/06/29 12:22:51;;;;;;;26.83;25.33;;;;;;;;;;4995298;28;20894;-86
2021/06/29 12:25:19;;;;;;;27.60;26.10;;;;;;;;;;4995490;28;20767;-86
2021/06/29 12:27:47;;;;;;;27.67;26.10;;;;;;;;;;4995433;28;20427;-86
2021/06/29 12:30:39;;;;;;;27.87;26.17;;;;;;;;;;4995440;28;20516;-86
2021/06/29 12:33:13;;;;;;;28.17;26.17;;;;;;;;;;4995388;28;20481;-86
2021/06/29 12:35:41;;;;;;;27.63;26.03;;;;;;;;;;4982663;28;20449;-84
2021/06/29 12:38:09;;;;;;;27.53;25.67;;;;;;;;;;4975645;28;20418;-84
2021/06/29 12:40:37;;;;;;;26.87;25.37;;;;;;;;;;4975637;28;20409;-84
2021/06/29 12:43:19;;;;;;;26.73;25.03;;;;;;;;;;4976035;28;20439;-86
2021/06/29 12:45:48;;;;;;;26.63;25.13;;;;;;;;;;4974473;28;20417;-86
2021/06/29 12:48:17;;;;;;;28.77;26.70;;;;;;;;;;4959300;28;20425;-88
2021/06/29 12:50:55;;;;;;;28.03;26.33;;;;;;;;;;4975177;28;20434;-84
2021/06/29 12:53:22;;;;;;;27.03;25.43;;;;;;;;;;4975269;28;20461;-92
2021/06/29 12:55:50;;;;;;;27.13;25.70;;;;;;;;;;4975416;28;20463;-87
2021/06/29 12:58:18;;;;;;;27.40;25.90;;;;;;;;;;4975894;28;20423;-85
2021/06/29 13:00:48;;;;;;;28.97;26.93;;;;;;;;;;4975176;28;20455;-85
2021/06/29 13:03:20;;;;;;;28.97;27.07;;;;;;;;;;4974776;28;20490;-83
2021/06/29 13:05:48;;;;;;;29.63;27.93;;;;;;;;;;4974959;28;20501;-84
2021/06/29 13:08:16;;;;;;;28.67;27.07;;;;;;;;;;4975486;28;20806;-83
2021/06/29 13:10:44;;;;;;;31.93;29.93;;;;;;;;;;4974976;28;20446;-83
2021/06/29 13:13:15;;;;;;;30.07;28.27;;;;;;;;;;4977897;28;20453;-82
2021/06/29 13:15:42;;;;;;;33.90;31.87;;;;;;;;;;4978518;28;20434;-82
2021/06/29 13:18:09;;;;;;;33.73;31.57;;;;;;;;;;4978925;28;20434;-81
2021/06/29 13:20:39;;;;;;;33.13;31.00;;;;;;;;;;4979155;28;20416;-85
2021/06/29 13:23:09;;;;;;;33.30;31.10;;;;;;;;;;4978773;28;20471;-86
2021/06/29 13:25:38;;;;;;;33.53;31.40;;;;;;;;;;4979657;28;20421;-86
2021/06/29 13:28:10;;;;;;;34.17;31.87;;;;;;;;;;4980254;28;20417;-84
2021/06/29 13:30:37;;;;;;;33.47;31.37;;;;;;;;;;4979061;28;20447;-87
2021/06/29 13:33:07;;;;;;;33.17;30.97;;;;;;;;;;4979700;28;20482;-85
2021/06/29 13:35:34;;;;;;;32.53;30.43;;;;;;;;;;4979119;28;20562;-87
2021/06/29 13:38:04;;;;;;;32.87;30.77;;;;;;;;;;4979135;28;20887;-88
2021/06/29 13:40:32;;;;;;;33.40;31.30;;;;;;;;;;4979184;28;20848;-89
2021/06/29 13:43:10;;;;;;;32.27;30.17;;;;;;;;;;4979161;28;20442;-89
2021/06/29 13:45:38;;;;;;;32.50;30.50;;;;;;;;;;4979350;28;20405;-86
2021/06/29 13:48:06;;;;;;;32.20;30.10;;;;;;;;;;4962033;28;20452;-89
2021/06/29 13:50:35;;;;;;;30.40;28.37;;;;;;;;;;4978767;28;20421;-83
2021/06/29 13:53:05;;;;;;;31.97;29.70;;;;;;;;;;4978365;28;20485;-83
2021/06/29 13:55:35;;;;;;;31.10;29.20;;;;;;;;;;4977992;28;20458;-83
2021/06/29 13:58:15;;;;;;;29.90;28.00;;;;;;;;;;4961157;28;20425;-95
2021/06/29 14:00:43;;;;;;;31.13;29.23;;;;;;;;;;4962055;28;20450;-92
2021/06/29 14:03:11;;;;;;;30.03;28.07;;;;;;;;;;4978736;28;20907;-93
2021/06/29 14:05:40;;;;;;;30.07;28.27;;;;;;;;;;4978970;28;20813;-92
2021/06/29 14:08:13;;;;;;;28.90;27.00;;;;;;;;;;4979971;28;20428;-91
2021/06/29 14:10:41;;;;;;;31.13;29.23;;;;;;;;;;4982866;28;20417;-93
2021/06/29 14:13:09;;;;;;;30.37;28.57;;;;;;;;;;4963366;28;20493;-92
2021/06/29 14:15:37;;;;;;;31.90;29.93;;;;;;;;;;4977679;28;20441;-82
2021/06/29 14:18:05;;;;;;;31.20;29.20;;;;;;;;;;4977868;28;20429;-82
2021/06/29 14:20:32;;;;;;;31.67;29.63;;;;;;;;;;4977618;28;20931;-82
2021/06/29 14:23:00;;;;;;;32.10;30.10;;;;;;;;;;4976177;28;20458;-81
2021/06/29 14:25:28;;;;;;;35.00;32.63;;;;;;;;;;4977436;28;20482;-85
2021/06/29 14:27:56;;;;;;;32.40;30.40;;;;;;;;;;4978330;28;20822;-91
2021/06/29 14:30:23;;;;;;;35.43;33.23;;;;;;;;;;4977719;28;20438;-91